Sodtown, Nebraska
Current Conditions -  °F | °C
As of 7:35 AM on Sunday 21 Dec 2014 (Local Time) from KEAR Reporting Station
Overcast Overcast  
Wind Chill: 24°   Ceiling: 10000
Heat Index: 32°   Visibility: 8mi
Dew Point: 28°   Wind: 9mph
Humidity: 87%   Direction: 160°SSE
Pressure: 29.79"   Gusts: NA
Location:  41.0033°N, 98.8321°W
Report Text: KEAR 211335Z 16008KT 8SM OVC100 00/M02 A2979 RMK AO1
Loading
Personal Weather Stations






























Interactive Weather Map New forecast layout! Learn more

10-Day Weather Forecast

Advertisements
Track Severe Weather on mobile